FAC001 MNMG-MHLM
Flight info
| Callsign | FAC001 |
|---|---|
| Flight time | 0h 47m |
| Altitude | 30000 |
| Route | ILESU1 TALAG DCT KANEL ARITA1A |
| Aircraft | A320/M-SDE3FGHIRWY/LB1 |
Departure
| Time | 2026-04-12 16:33 |
|---|---|
| Airport | Augusto C. Sandino (Managua) International Airport (MNMG) |
Arrival
| Time | 2026-04-12 17:20 |
|---|---|
| Airport | Ramón Villeda Morales International Airport (MHLM) |
| Time | Latitude | Longitude | Altitude | Speed | Heading |
|---|---|---|---|---|---|
| 2026-04-12 16:02 | 12.14425 | -86.17266 | 204 ft | 0 kts | 24° |
| 2026-04-12 16:26 | 12.14415 | -86.17270 | 210 ft | 4 kts | 24° |
| 2026-04-12 16:26 | 12.14391 | -86.17281 | 210 ft | 4 kts | 22° |
| 2026-04-12 16:26 | 12.14366 | -86.17289 | 203 ft | 4 kts | 358° |
| 2026-04-12 16:26 | 12.14346 | -86.17282 | 203 ft | 4 kts | 291° |
| 2026-04-12 16:27 | 12.14342 | -86.17262 | 210 ft | 4 kts | 276° |
| 2026-04-12 16:27 | 12.14341 | -86.17255 | 210 ft | 0 kts | 276° |
| 2026-04-12 16:29 | 12.14342 | -86.17268 | 210 ft | 3 kts | 276° |
| 2026-04-12 16:29 | 12.14346 | -86.17302 | 201 ft | 6 kts | 276° |
| 2026-04-12 16:29 | 12.14352 | -86.17356 | 196 ft | 9 kts | 276° |
| 2026-04-12 16:30 | 12.14359 | -86.17425 | 197 ft | 11 kts | 276° |
| 2026-04-12 16:30 | 12.14368 | -86.17510 | 197 ft | 13 kts | 276° |
| 2026-04-12 16:30 | 12.14378 | -86.17609 | 204 ft | 15 kts | 276° |
| 2026-04-12 16:30 | 12.14390 | -86.17723 | 197 ft | 17 kts | 270° |
| 2026-04-12 16:31 | 12.14353 | -86.17815 | 197 ft | 14 kts | 257° |
| 2026-04-12 16:31 | 12.14288 | -86.17870 | 202 ft | 8 kts | 170° |
| 2026-04-12 16:31 | 12.14269 | -86.17825 | 199 ft | 0 kts | 96° |
| 2026-04-12 16:32 | 12.14269 | -86.17823 | 199 ft | 1 kts | 96° |
| 2026-04-12 16:32 | 12.14269 | -86.17818 | 199 ft | 3 kts | 96° |
| 2026-04-12 16:32 | 12.14239 | -86.17543 | 201 ft | 73 kts | 97° |
| 2026-04-12 16:32 | 12.14157 | -86.16833 | 198 ft | 125 kts | 97° |
| 2026-04-12 16:33 | 12.14036 | -86.15846 | 482 ft | 145 kts | 96° |
| 2026-04-12 16:33 | 12.13920 | -86.14799 | 1054 ft | 154 kts | 91° |
| 2026-04-12 16:33 | 12.13839 | -86.13633 | 1434 ft | 175 kts | 89° |
| 2026-04-12 16:33 | 12.13756 | -86.12328 | 1756 ft | 198 kts | 89° |
| 2026-04-12 16:34 | 12.13655 | -86.10834 | 2102 ft | 223 kts | 90° |
| 2026-04-12 16:34 | 12.13535 | -86.09190 | 2624 ft | 237 kts | 89° |
| 2026-04-12 16:34 | 12.13825 | -86.07553 | 3408 ft | 238 kts | 59° |
| 2026-04-12 16:34 | 12.15056 | -86.06436 | 4263 ft | 247 kts | 26° |
| 2026-04-12 16:35 | 12.16810 | -86.06288 | 5029 ft | 269 kts | 353° |
| 2026-04-12 16:35 | 12.18574 | -86.07101 | 5852 ft | 283 kts | 338° |
| 2026-04-12 16:35 | 12.20422 | -86.07703 | 6580 ft | 279 kts | 360° |
| 2026-04-12 16:35 | 12.22354 | -86.07778 | 7431 ft | 278 kts | 7° |
| 2026-04-12 16:36 | 12.24293 | -86.07680 | 8227 ft | 281 kts | 9° |
| 2026-04-12 16:36 | 12.26275 | -86.07716 | 8946 ft | 291 kts | 356° |
| 2026-04-12 16:36 | 12.28258 | -86.08311 | 9664 ft | 303 kts | 338° |
| 2026-04-12 16:36 | 12.30122 | -86.09382 | 10339 ft | 309 kts | 332° |
| 2026-04-12 16:37 | 12.31975 | -86.10512 | 11034 ft | 312 kts | 333° |
| 2026-04-12 16:37 | 12.33846 | -86.11668 | 11697 ft | 316 kts | 332° |
| 2026-04-12 16:37 | 12.35731 | -86.12837 | 12350 ft | 318 kts | 331° |
| 2026-04-12 16:37 | 12.37610 | -86.13997 | 13066 ft | 319 kts | 330° |
| 2026-04-12 16:38 | 12.39517 | -86.15168 | 13769 ft | 320 kts | 330° |
| 2026-04-12 16:38 | 12.41432 | -86.16343 | 14360 ft | 322 kts | 330° |
| 2026-04-12 16:38 | 12.43365 | -86.17528 | 14934 ft | 325 kts | 330° |
| 2026-04-12 16:38 | 12.45313 | -86.18719 | 15503 ft | 327 kts | 329° |
| 2026-04-12 16:39 | 12.47269 | -86.19914 | 16090 ft | 329 kts | 329° |
| 2026-04-12 16:39 | 12.49240 | -86.21120 | 16655 ft | 331 kts | 329° |
| 2026-04-12 16:39 | 12.51226 | -86.22333 | 17210 ft | 334 kts | 329° |
| 2026-04-12 16:39 | 12.53227 | -86.23555 | 17766 ft | 336 kts | 329° |
| 2026-04-12 16:40 | 12.55245 | -86.24788 | 18300 ft | 339 kts | 328° |
| 2026-04-12 16:40 | 12.57247 | -86.26011 | 18766 ft | 341 kts | 328° |
| 2026-04-12 16:40 | 12.59290 | -86.27263 | 19235 ft | 343 kts | 328° |
| 2026-04-12 16:40 | 12.61344 | -86.28519 | 19732 ft | 345 kts | 329° |
| 2026-04-12 16:41 | 12.63409 | -86.29783 | 20194 ft | 347 kts | 329° |
| 2026-04-12 16:41 | 12.65488 | -86.31057 | 20651 ft | 349 kts | 329° |
| 2026-04-12 16:41 | 12.67575 | -86.32335 | 21105 ft | 351 kts | 329° |
| 2026-04-12 16:41 | 12.69680 | -86.33623 | 21564 ft | 353 kts | 329° |
| 2026-04-12 16:42 | 12.71794 | -86.34917 | 21991 ft | 355 kts | 329° |
| 2026-04-12 16:42 | 12.73919 | -86.36219 | 22415 ft | 357 kts | 329° |
| 2026-04-12 16:42 | 12.76060 | -86.37531 | 22851 ft | 360 kts | 329° |
| 2026-04-12 16:43 | 12.82541 | -86.41507 | 24171 ft | 361 kts | 329° |
| 2026-04-12 16:43 | 12.84663 | -86.42806 | 24634 ft | 359 kts | 329° |
| 2026-04-12 16:43 | 12.86798 | -86.44113 | 25147 ft | 355 kts | 329° |
| 2026-04-12 16:44 | 12.88911 | -86.45407 | 25642 ft | 352 kts | 329° |
| 2026-04-12 16:44 | 12.91009 | -86.46694 | 26132 ft | 350 kts | 328° |
| 2026-04-12 16:44 | 12.93094 | -86.47977 | 26588 ft | 348 kts | 328° |
| 2026-04-12 16:44 | 12.95163 | -86.49253 | 27073 ft | 345 kts | 328° |
| 2026-04-12 16:45 | 12.97204 | -86.50511 | 27641 ft | 341 kts | 328° |
| 2026-04-12 16:45 | 12.99232 | -86.51759 | 28083 ft | 339 kts | 328° |
| 2026-04-12 16:45 | 13.01258 | -86.53001 | 28478 ft | 339 kts | 327° |
| 2026-04-12 16:45 | 13.03270 | -86.54233 | 28968 ft | 336 kts | 327° |
| 2026-04-12 16:46 | 13.05264 | -86.55453 | 29535 ft | 332 kts | 328° |
| 2026-04-12 16:46 | 13.07313 | -86.56554 | 29926 ft | 334 kts | 333° |
| 2026-04-12 16:46 | 13.09457 | -86.57483 | 30021 ft | 344 kts | 335° |
| 2026-04-12 16:47 | 13.14004 | -86.59396 | 30034 ft | 364 kts | 335° |
| 2026-04-12 16:47 | 13.16385 | -86.60395 | 30029 ft | 376 kts | 335° |
| 2026-04-12 16:47 | 13.18849 | -86.61431 | 30046 ft | 387 kts | 334° |
| 2026-04-12 16:47 | 13.21379 | -86.62497 | 30045 ft | 398 kts | 335° |
| 2026-04-12 16:48 | 13.23977 | -86.63594 | 30046 ft | 409 kts | 335° |
| 2026-04-12 16:48 | 13.29368 | -86.65868 | 30031 ft | 428 kts | 335° |
| 2026-04-12 16:49 | 13.35003 | -86.68242 | 30050 ft | 446 kts | 335° |
| 2026-04-12 16:49 | 13.40795 | -86.70686 | 30048 ft | 457 kts | 335° |
| 2026-04-12 16:50 | 13.46706 | -86.73183 | 30050 ft | 455 kts | 335° |
| 2026-04-12 16:50 | 13.52613 | -86.75682 | 30066 ft | 461 kts | 336° |
| 2026-04-12 16:51 | 13.58526 | -86.78175 | 30069 ft | 463 kts | 336° |
| 2026-04-12 16:51 | 13.64488 | -86.80688 | 30079 ft | 462 kts | 336° |
| 2026-04-12 16:52 | 13.70433 | -86.83205 | 30071 ft | 462 kts | 336° |
| 2026-04-12 16:52 | 13.76377 | -86.85729 | 30068 ft | 462 kts | 336° |
| 2026-04-12 16:53 | 13.82325 | -86.88252 | 30101 ft | 462 kts | 336° |
| 2026-04-12 16:53 | 13.88266 | -86.90773 | 30102 ft | 462 kts | 336° |
| 2026-04-12 16:54 | 13.94206 | -86.93294 | 30144 ft | 462 kts | 336° |
| 2026-04-12 16:54 | 14.00151 | -86.95816 | 30166 ft | 462 kts | 336° |
| 2026-04-12 16:55 | 14.06096 | -86.98338 | 30195 ft | 462 kts | 336° |
| 2026-04-12 16:55 | 14.12038 | -87.00861 | 30193 ft | 462 kts | 336° |
| 2026-04-12 16:56 | 14.17991 | -87.03393 | 30194 ft | 462 kts | 336° |
| 2026-04-12 16:56 | 14.23940 | -87.05925 | 30197 ft | 462 kts | 336° |
| 2026-04-12 16:57 | 14.29891 | -87.08458 | 30193 ft | 462 kts | 336° |
| 2026-04-12 16:57 | 14.35840 | -87.10993 | 30184 ft | 463 kts | 336° |
| 2026-04-12 16:58 | 14.41595 | -87.13910 | 30184 ft | 460 kts | 324° |
| 2026-04-12 16:58 | 14.46162 | -87.18466 | 30183 ft | 458 kts | 306° |
| 2026-04-12 16:59 | 14.49597 | -87.23996 | 30168 ft | 458 kts | 302° |
| 2026-04-12 16:59 | 14.52997 | -87.29515 | 30160 ft | 458 kts | 302° |
| 2026-04-12 17:00 | 14.56427 | -87.35064 | 30162 ft | 458 kts | 302° |
| 2026-04-12 17:00 | 14.58139 | -87.37842 | 30009 ft | 459 kts | 302° |
| 2026-04-12 17:00 | 14.59848 | -87.40620 | 28958 ft | 457 kts | 302° |
| 2026-04-12 17:00 | 14.61536 | -87.43369 | 27801 ft | 449 kts | 302° |
| 2026-04-12 17:01 | 14.63199 | -87.46072 | 26665 ft | 442 kts | 303° |
| 2026-04-12 17:01 | 14.64841 | -87.48738 | 25579 ft | 442 kts | 304° |
| 2026-04-12 17:01 | 14.66714 | -87.51281 | 24635 ft | 443 kts | 313° |
| 2026-04-12 17:01 | 14.68879 | -87.53405 | 24364 ft | 414 kts | 321° |
| 2026-04-12 17:02 | 14.71129 | -87.55087 | 24262 ft | 387 kts | 329° |
| 2026-04-12 17:02 | 14.73429 | -87.56381 | 24023 ft | 367 kts | 335° |
| 2026-04-12 17:02 | 14.75688 | -87.57483 | 23741 ft | 353 kts | 335° |
| 2026-04-12 17:02 | 14.77914 | -87.58555 | 23489 ft | 354 kts | 335° |
| 2026-04-12 17:03 | 14.80145 | -87.59627 | 23345 ft | 352 kts | 335° |
| 2026-04-12 17:03 | 14.82369 | -87.60696 | 23346 ft | 351 kts | 336° |
| 2026-04-12 17:03 | 14.84584 | -87.61761 | 23201 ft | 352 kts | 335° |
| 2026-04-12 17:03 | 14.86697 | -87.63023 | 22942 ft | 352 kts | 324° |
| 2026-04-12 17:04 | 14.88665 | -87.64529 | 22685 ft | 351 kts | 324° |
| 2026-04-12 17:04 | 14.90625 | -87.66027 | 21925 ft | 353 kts | 325° |
| 2026-04-12 17:04 | 14.92607 | -87.67539 | 20667 ft | 365 kts | 324° |
| 2026-04-12 17:04 | 14.94681 | -87.69122 | 19514 ft | 374 kts | 324° |
| 2026-04-12 17:05 | 14.96735 | -87.70691 | 19139 ft | 357 kts | 324° |
| 2026-04-12 17:05 | 14.98690 | -87.72183 | 18914 ft | 344 kts | 324° |
| 2026-04-12 17:05 | 15.00607 | -87.73649 | 18690 ft | 342 kts | 324° |
| 2026-04-12 17:05 | 15.02524 | -87.75115 | 18469 ft | 342 kts | 324° |
| 2026-04-12 17:06 | 15.04429 | -87.76574 | 18225 ft | 339 kts | 324° |
| 2026-04-12 17:06 | 15.05684 | -87.77535 | 18055 ft | 339 kts | 324° |
| 2026-04-12 17:06 | 15.07578 | -87.78986 | 17675 ft | 339 kts | 324° |
| 2026-04-12 17:06 | 15.09462 | -87.80426 | 17196 ft | 336 kts | 324° |
| 2026-04-12 17:07 | 15.11340 | -87.81861 | 16688 ft | 334 kts | 324° |
| 2026-04-12 17:07 | 15.13201 | -87.83285 | 16134 ft | 332 kts | 324° |
| 2026-04-12 17:07 | 15.15096 | -87.84733 | 14994 ft | 345 kts | 325° |
| 2026-04-12 17:07 | 15.17063 | -87.86237 | 13791 ft | 358 kts | 325° |
| 2026-04-12 17:08 | 15.19097 | -87.87793 | 12358 ft | 369 kts | 325° |
| 2026-04-12 17:08 | 15.21207 | -87.89358 | 10861 ft | 377 kts | 331° |
| 2026-04-12 17:08 | 15.23635 | -87.90185 | 10175 ft | 356 kts | 357° |
| 2026-04-12 17:08 | 15.25966 | -87.90023 | 10161 ft | 319 kts | 17° |
| 2026-04-12 17:09 | 15.27903 | -87.89151 | 10027 ft | 294 kts | 36° |
| 2026-04-12 17:09 | 15.29464 | -87.87868 | 9865 ft | 282 kts | 40° |
| 2026-04-12 17:09 | 15.30950 | -87.86588 | 9740 ft | 280 kts | 40° |
| 2026-04-12 17:09 | 15.32444 | -87.85291 | 9609 ft | 279 kts | 40° |
| 2026-04-12 17:10 | 15.33929 | -87.83997 | 9491 ft | 279 kts | 40° |
| 2026-04-12 17:10 | 15.35416 | -87.82704 | 9351 ft | 278 kts | 40° |
| 2026-04-12 17:10 | 15.36899 | -87.81415 | 9233 ft | 278 kts | 40° |
| 2026-04-12 17:10 | 15.38380 | -87.80129 | 9105 ft | 277 kts | 40° |
| 2026-04-12 17:11 | 15.39861 | -87.78847 | 8975 ft | 277 kts | 40° |
| 2026-04-12 17:11 | 15.41343 | -87.77566 | 8611 ft | 280 kts | 40° |
| 2026-04-12 17:11 | 15.42844 | -87.76273 | 8300 ft | 278 kts | 40° |
| 2026-04-12 17:11 | 15.44313 | -87.75007 | 7799 ft | 274 kts | 40° |
| 2026-04-12 17:12 | 15.45757 | -87.73759 | 7200 ft | 272 kts | 40° |
| 2026-04-12 17:12 | 15.47212 | -87.72501 | 6566 ft | 271 kts | 41° |
| 2026-04-12 17:12 | 15.48623 | -87.71280 | 6342 ft | 256 kts | 41° |
| 2026-04-12 17:12 | 15.49946 | -87.70138 | 6051 ft | 244 kts | 41° |
| 2026-04-12 17:13 | 15.51276 | -87.69044 | 5545 ft | 243 kts | 32° |
| 2026-04-12 17:13 | 15.52891 | -87.68659 | 5093 ft | 243 kts | 353° |
| 2026-04-12 17:13 | 15.54413 | -87.69399 | 4592 ft | 247 kts | 321° |
| 2026-04-12 17:13 | 15.55622 | -87.70674 | 4043 ft | 248 kts | 314° |
| 2026-04-12 17:14 | 15.56697 | -87.72021 | 3888 ft | 232 kts | 311° |
| 2026-04-12 17:14 | 15.57655 | -87.73277 | 3783 ft | 217 kts | 310° |
| 2026-04-12 17:14 | 15.58600 | -87.74501 | 3600 ft | 212 kts | 311° |
| 2026-04-12 17:14 | 15.59416 | -87.75704 | 3597 ft | 198 kts | 298° |
| 2026-04-12 17:15 | 15.59811 | -87.77011 | 3615 ft | 181 kts | 280° |
| 2026-04-12 17:15 | 15.59807 | -87.78250 | 3497 ft | 165 kts | 263° |
| 2026-04-12 17:15 | 15.59477 | -87.79405 | 3394 ft | 181 kts | 248° |
| 2026-04-12 17:15 | 15.58779 | -87.80505 | 3188 ft | 178 kts | 228° |
| 2026-04-12 17:16 | 15.57885 | -87.81323 | 2971 ft | 166 kts | 221° |
| 2026-04-12 17:16 | 15.57020 | -87.82080 | 2772 ft | 160 kts | 222° |
| 2026-04-12 17:16 | 15.56181 | -87.82814 | 2577 ft | 156 kts | 221° |
| 2026-04-12 17:16 | 15.55354 | -87.83538 | 2371 ft | 155 kts | 221° |
| 2026-04-12 17:17 | 15.54528 | -87.84261 | 2177 ft | 156 kts | 221° |
| 2026-04-12 17:17 | 15.53706 | -87.84979 | 1985 ft | 153 kts | 221° |
| 2026-04-12 17:17 | 15.52893 | -87.85690 | 1777 ft | 153 kts | 223° |
| 2026-04-12 17:17 | 15.52082 | -87.86398 | 1585 ft | 153 kts | 222° |
| 2026-04-12 17:18 | 15.51270 | -87.87108 | 1392 ft | 152 kts | 221° |
| 2026-04-12 17:18 | 15.50460 | -87.87815 | 1206 ft | 152 kts | 221° |
| 2026-04-12 17:18 | 15.49655 | -87.88519 | 1013 ft | 151 kts | 220° |
| 2026-04-12 17:18 | 15.48853 | -87.89220 | 813 ft | 150 kts | 220° |
| 2026-04-12 17:19 | 15.48069 | -87.89905 | 631 ft | 148 kts | 220° |
| 2026-04-12 17:19 | 15.47280 | -87.90593 | 411 ft | 148 kts | 220° |
| 2026-04-12 17:19 | 15.46488 | -87.91285 | 223 ft | 151 kts | 220° |
| 2026-04-12 17:19 | 15.45689 | -87.91983 | 91 ft | 140 kts | 220° |
| 2026-04-12 17:20 | 15.45178 | -87.92432 | 93 ft | 53 kts | 220° |
| 2026-04-12 17:20 | 15.44945 | -87.92635 | 94 ft | 43 kts | 219° |
| 2026-04-12 17:20 | 15.44720 | -87.92830 | 92 ft | 42 kts | 220° |
| 2026-04-12 17:20 | 15.44569 | -87.92960 | 96 ft | 19 kts | 219° |
| 2026-04-12 17:21 | 15.44531 | -87.93067 | 95 ft | 12 kts | 297° |
| 2026-04-12 17:21 | 15.44608 | -87.93090 | 95 ft | 14 kts | 27° |
| 2026-04-12 17:21 | 15.44686 | -87.93014 | 94 ft | 17 kts | 36° |
| 2026-04-12 17:21 | 15.44799 | -87.92927 | 94 ft | 27 kts | 39° |
| 2026-04-12 17:22 | 15.44954 | -87.92792 | 93 ft | 30 kts | 40° |
| 2026-04-12 17:22 | 15.45117 | -87.92649 | 94 ft | 31 kts | 40° |
| 2026-04-12 17:22 | 15.45254 | -87.92536 | 93 ft | 18 kts | 20° |
| 2026-04-12 17:22 | 15.45353 | -87.92608 | 94 ft | 20 kts | 311° |
| 2026-04-12 17:23 | 15.45438 | -87.92633 | 92 ft | 13 kts | 48° |
| 2026-04-12 17:23 | 15.45515 | -87.92570 | 91 ft | 12 kts | 32° |
| 2026-04-12 17:23 | 15.45571 | -87.92578 | 91 ft | 8 kts | 320° |
| 2026-04-12 17:23 | 15.45592 | -87.92620 | 91 ft | 4 kts | 308° |
| 2026-04-12 17:24 | 15.45598 | -87.92627 | 92 ft | 0 kts | 310° |